sensor_id;sensor_type;location;lat;lon;timestamp;P1;durP1;ratioP1;P2;durP2;ratioP2
16845;SDS011;8539;53.188;8.696;2023-03-14T00:01:10;18.88;;;3.92;;
16845;SDS011;8539;53.188;8.696;2023-03-14T00:03:40;14.85;;;5.50;;
16845;SDS011;8539;53.188;8.696;2023-03-14T00:06:08;26.42;;;4.03;;
16845;SDS011;8539;53.188;8.696;2023-03-14T00:08:34;19.42;;;4.90;;
16845;SDS011;8539;53.188;8.696;2023-03-14T00:11:08;19.05;;;4.07;;
16845;SDS011;8539;53.188;8.696;2023-03-14T00:13:35;10.73;;;3.30;;
16845;SDS011;8539;53.188;8.696;2023-03-14T00:16:03;15.30;;;3.50;;
16845;SDS011;8539;53.188;8.696;2023-03-14T00:18:31;15.48;;;3.97;;
16845;SDS011;8539;53.188;8.696;2023-03-14T00:21:01;25.40;;;3.60;;
16845;SDS011;8539;53.188;8.696;2023-03-14T00:23:29;22.52;;;4.03;;
16845;SDS011;8539;53.188;8.696;2023-03-14T00:26:00;22.08;;;4.75;;
16845;SDS011;8539;53.188;8.696;2023-03-14T00:28:27;14.30;;;3.60;;
16845;SDS011;8539;53.188;8.696;2023-03-14T00:30:54;14.10;;;3.92;;
16845;SDS011;8539;53.188;8.696;2023-03-14T00:33:20;13.82;;;3.17;;
16845;SDS011;8539;53.188;8.696;2023-03-14T00:35:57;8.50;;;3.30;;
16845;SDS011;8539;53.188;8.696;2023-03-14T00:38:27;21.15;;;4.75;;
16845;SDS011;8539;53.188;8.696;2023-03-14T00:40:53;13.07;;;3.78;;
16845;SDS011;8539;53.188;8.696;2023-03-14T00:43:20;13.80;;;2.83;;
16845;SDS011;8539;53.188;8.696;2023-03-14T00:45:50;20.90;;;3.17;;
16845;SDS011;8539;53.188;8.696;2023-03-14T00:48:18;9.75;;;3.13;;
16845;SDS011;8539;53.188;8.696;2023-03-14T00:50:45;13.73;;;3.45;;
16845;SDS011;8539;53.188;8.696;2023-03-14T00:53:12;14.85;;;4.00;;
16845;SDS011;8539;53.188;8.696;2023-03-14T00:55:39;14.55;;;3.42;;
16845;SDS011;8539;53.188;8.696;2023-03-14T00:58:06;8.77;;;3.83;;
16845;SDS011;8539;53.188;8.696;2023-03-14T01:00:32;14.50;;;3.03;;
16845;SDS011;8539;53.188;8.696;2023-03-14T01:02:58;15.98;;;6.35;;
16845;SDS011;8539;53.188;8.696;2023-03-14T01:05:25;11.60;;;3.53;;
16845;SDS011;8539;53.188;8.696;2023-03-14T01:07:51;7.15;;;3.85;;
16845;SDS011;8539;53.188;8.696;2023-03-14T01:10:17;10.90;;;3.58;;
16845;SDS011;8539;53.188;8.696;2023-03-14T01:12:43;16.55;;;4.55;;
16845;SDS011;8539;53.188;8.696;2023-03-14T01:15:09;11.77;;;3.60;;
16845;SDS011;8539;53.188;8.696;2023-03-14T01:17:36;3.60;;;2.88;;
16845;SDS011;8539;53.188;8.696;2023-03-14T01:20:05;14.48;;;4.47;;
16845;SDS011;8539;53.188;8.696;2023-03-14T01:22:36;8.25;;;3.20;;
16845;SDS011;8539;53.188;8.696;2023-03-14T01:25:14;12.20;;;4.63;;
16845;SDS011;8539;53.188;8.696;2023-03-14T01:27:41;7.53;;;3.70;;
16845;SDS011;8539;53.188;8.696;2023-03-14T01:30:08;12.38;;;4.28;;
16845;SDS011;8539;53.188;8.696;2023-03-14T01:32:36;9.30;;;3.47;;
16845;SDS011;8539;53.188;8.696;2023-03-14T01:35:03;9.25;;;3.30;;
16845;SDS011;8539;53.188;8.696;2023-03-14T01:37:30;7.80;;;3.70;;
16845;SDS011;8539;53.188;8.696;2023-03-14T01:39:56;15.05;;;4.07;;
16845;SDS011;8539;53.188;8.696;2023-03-14T01:42:22;11.60;;;3.80;;
16845;SDS011;8539;53.188;8.696;2023-03-14T01:44:55;10.48;;;5.32;;
16845;SDS011;8539;53.188;8.696;2023-03-14T01:47:23;10.90;;;4.47;;
16845;SDS011;8539;53.188;8.696;2023-03-14T01:50:08;10.23;;;5.32;;
16845;SDS011;8539;53.188;8.696;2023-03-14T01:52:37;13.93;;;4.38;;
16845;SDS011;8539;53.188;8.696;2023-03-14T01:57:46;12.00;;;5.22;;
16845;SDS011;8539;53.188;8.696;2023-03-14T02:00:16;10.98;;;5.63;;
16845;SDS011;8539;53.188;8.696;2023-03-14T02:02:55;10.10;;;4.88;;
16845;SDS011;8539;53.188;8.696;2023-03-14T02:05:26;17.10;;;5.65;;
16845;SDS011;8539;53.188;8.696;2023-03-14T02:07:58;10.85;;;4.45;;
16845;SDS011;8539;53.188;8.696;2023-03-14T02:10:30;18.05;;;5.75;;
16845;SDS011;8539;53.188;8.696;2023-03-14T02:13:00;7.15;;;4.40;;
16845;SDS011;8539;53.188;8.696;2023-03-14T02:15:28;12.30;;;5.13;;
16845;SDS011;8539;53.188;8.696;2023-03-14T02:17:55;8.63;;;4.18;;
16845;SDS011;8539;53.188;8.696;2023-03-14T02:23:04;10.15;;;4.63;;
16845;SDS011;8539;53.188;8.696;2023-03-14T02:28:21;11.40;;;4.57;;
16845;SDS011;8539;53.188;8.696;2023-03-14T02:30:47;6.95;;;3.95;;
16845;SDS011;8539;53.188;8.696;2023-03-14T02:33:14;8.90;;;4.30;;
16845;SDS011;8539;53.188;8.696;2023-03-14T02:35:56;18.23;;;4.20;;
16845;SDS011;8539;53.188;8.696;2023-03-14T02:38:33;8.75;;;4.55;;
16845;SDS011;8539;53.188;8.696;2023-03-14T02:41:21;8.85;;;4.43;;
16845;SDS011;8539;53.188;8.696;2023-03-14T02:43:47;13.10;;;4.50;;
16845;SDS011;8539;53.188;8.696;2023-03-14T02:46:14;7.85;;;3.78;;
16845;SDS011;8539;53.188;8.696;2023-03-14T02:49:05;11.35;;;5.68;;
16845;SDS011;8539;53.188;8.696;2023-03-14T02:51:35;13.40;;;4.50;;
16845;SDS011;8539;53.188;8.696;2023-03-14T02:54:02;13.77;;;4.75;;
16845;SDS011;8539;53.188;8.696;2023-03-14T02:56:28;13.23;;;4.47;;
16845;SDS011;8539;53.188;8.696;2023-03-14T02:58:54;13.85;;;5.22;;
16845;SDS011;8539;53.188;8.696;2023-03-14T03:01:20;12.85;;;4.70;;
16845;SDS011;8539;53.188;8.696;2023-03-14T03:03:48;9.35;;;4.60;;
16845;SDS011;8539;53.188;8.696;2023-03-14T03:06:14;10.07;;;4.47;;
16845;SDS011;8539;53.188;8.696;2023-03-14T03:08:41;7.45;;;4.57;;
16845;SDS011;8539;53.188;8.696;2023-03-14T03:11:07;13.00;;;5.15;;
16845;SDS011;8539;53.188;8.696;2023-03-14T03:13:34;14.27;;;4.70;;
16845;SDS011;8539;53.188;8.696;2023-03-14T03:16:00;9.50;;;4.28;;
16845;SDS011;8539;53.188;8.696;2023-03-14T03:18:26;9.93;;;5.13;;
16845;SDS011;8539;53.188;8.696;2023-03-14T03:20:52;9.23;;;4.38;;
16845;SDS011;8539;53.188;8.696;2023-03-14T03:23:18;13.07;;;4.82;;
16845;SDS011;8539;53.188;8.696;2023-03-14T03:25:48;11.25;;;4.38;;
16845;SDS011;8539;53.188;8.696;2023-03-14T03:28:15;8.43;;;3.47;;
16845;SDS011;8539;53.188;8.696;2023-03-14T03:30:41;12.23;;;4.00;;
16845;SDS011;8539;53.188;8.696;2023-03-14T03:33:09;10.13;;;3.45;;
16845;SDS011;8539;53.188;8.696;2023-03-14T03:35:46;16.95;;;3.88;;
16845;SDS011;8539;53.188;8.696;2023-03-14T03:38:14;9.10;;;3.08;;
16845;SDS011;8539;53.188;8.696;2023-03-14T03:40:41;8.57;;;3.15;;
16845;SDS011;8539;53.188;8.696;2023-03-14T03:43:08;10.52;;;2.67;;
16845;SDS011;8539;53.188;8.696;2023-03-14T03:45:34;8.15;;;2.47;;
16845;SDS011;8539;53.188;8.696;2023-03-14T03:48:00;6.07;;;3.13;;
16845;SDS011;8539;53.188;8.696;2023-03-14T03:50:26;8.45;;;3.30;;
16845;SDS011;8539;53.188;8.696;2023-03-14T03:52:52;5.15;;;3.28;;
16845;SDS011;8539;53.188;8.696;2023-03-14T03:55:19;7.60;;;3.40;;
16845;SDS011;8539;53.188;8.696;2023-03-14T03:57:45;9.73;;;2.53;;
16845;SDS011;8539;53.188;8.696;2023-03-14T04:00:11;8.02;;;2.10;;
16845;SDS011;8539;53.188;8.696;2023-03-14T04:02:39;5.28;;;2.38;;
16845;SDS011;8539;53.188;8.696;2023-03-14T04:05:05;5.38;;;3.13;;
16845;SDS011;8539;53.188;8.696;2023-03-14T04:07:32;4.30;;;1.77;;
16845;SDS011;8539;53.188;8.696;2023-03-14T04:09:58;4.18;;;1.90;;
16845;SDS011;8539;53.188;8.696;2023-03-14T04:12:24;4.63;;;3.08;;
16845;SDS011;8539;53.188;8.696;2023-03-14T04:14:51;6.25;;;2.55;;
16845;SDS011;8539;53.188;8.696;2023-03-14T04:17:17;4.78;;;2.97;;
16845;SDS011;8539;53.188;8.696;2023-03-14T04:19:43;6.28;;;2.00;;
16845;SDS011;8539;53.188;8.696;2023-03-14T04:22:10;8.27;;;1.98;;
16845;SDS011;8539;53.188;8.696;2023-03-14T04:24:36;8.98;;;1.90;;
16845;SDS011;8539;53.188;8.696;2023-03-14T04:27:02;7.40;;;3.38;;
16845;SDS011;8539;53.188;8.696;2023-03-14T04:29:28;6.10;;;2.15;;
16845;SDS011;8539;53.188;8.696;2023-03-14T04:31:54;7.63;;;2.45;;
16845;SDS011;8539;53.188;8.696;2023-03-14T04:34:20;7.10;;;2.45;;
16845;SDS011;8539;53.188;8.696;2023-03-14T04:36:47;9.50;;;2.92;;
16845;SDS011;8539;53.188;8.696;2023-03-14T04:39:13;4.63;;;1.98;;
16845;SDS011;8539;53.188;8.696;2023-03-14T04:41:39;5.35;;;3.85;;
16845;SDS011;8539;53.188;8.696;2023-03-14T04:44:05;7.88;;;2.88;;
16845;SDS011;8539;53.188;8.696;2023-03-14T04:46:31;3.47;;;2.28;;
16845;SDS011;8539;53.188;8.696;2023-03-14T04:48:57;6.85;;;3.13;;
16845;SDS011;8539;53.188;8.696;2023-03-14T04:51:23;10.95;;;3.03;;
16845;SDS011;8539;53.188;8.696;2023-03-14T04:53:53;8.60;;;2.65;;
16845;SDS011;8539;53.188;8.696;2023-03-14T04:56:20;8.35;;;3.10;;
16845;SDS011;8539;53.188;8.696;2023-03-14T04:58:46;3.97;;;3.28;;
16845;SDS011;8539;53.188;8.696;2023-03-14T05:01:12;6.13;;;2.17;;
16845;SDS011;8539;53.188;8.696;2023-03-14T05:03:38;7.50;;;2.30;;
16845;SDS011;8539;53.188;8.696;2023-03-14T05:06:05;6.13;;;3.00;;
16845;SDS011;8539;53.188;8.696;2023-03-14T05:08:31;5.40;;;2.70;;
16845;SDS011;8539;53.188;8.696;2023-03-14T05:10:57;4.00;;;2.22;;
16845;SDS011;8539;53.188;8.696;2023-03-14T05:13:23;6.95;;;2.40;;
16845;SDS011;8539;53.188;8.696;2023-03-14T05:15:50;12.25;;;2.95;;
16845;SDS011;8539;53.188;8.696;2023-03-14T05:18:16;6.20;;;3.03;;
16845;SDS011;8539;53.188;8.696;2023-03-14T05:20:43;8.40;;;2.58;;
16845;SDS011;8539;53.188;8.696;2023-03-14T05:23:09;4.93;;;2.40;;
16845;SDS011;8539;53.188;8.696;2023-03-14T05:25:36;5.97;;;2.67;;
16845;SDS011;8539;53.188;8.696;2023-03-14T05:28:02;6.63;;;2.55;;
16845;SDS011;8539;53.188;8.696;2023-03-14T05:30:29;13.15;;;2.53;;
16845;SDS011;8539;53.188;8.696;2023-03-14T05:32:56;9.13;;;2.45;;
16845;SDS011;8539;53.188;8.696;2023-03-14T05:35:22;4.75;;;2.30;;
16845;SDS011;8539;53.188;8.696;2023-03-14T05:37:48;5.10;;;2.20;;
16845;SDS011;8539;53.188;8.696;2023-03-14T05:40:14;9.38;;;2.53;;
16845;SDS011;8539;53.188;8.696;2023-03-14T05:42:40;5.80;;;1.98;;
16845;SDS011;8539;53.188;8.696;2023-03-14T05:45:07;9.32;;;2.10;;
16845;SDS011;8539;53.188;8.696;2023-03-14T05:47:33;11.70;;;3.30;;
16845;SDS011;8539;53.188;8.696;2023-03-14T05:49:59;10.27;;;2.30;;
16845;SDS011;8539;53.188;8.696;2023-03-14T05:52:25;11.30;;;2.90;;
16845;SDS011;8539;53.188;8.696;2023-03-14T05:54:51;9.68;;;2.90;;
16845;SDS011;8539;53.188;8.696;2023-03-14T05:57:17;8.07;;;2.08;;
16845;SDS011;8539;53.188;8.696;2023-03-14T05:59:43;6.75;;;2.17;;
16845;SDS011;8539;53.188;8.696;2023-03-14T06:02:10;9.80;;;2.55;;
16845;SDS011;8539;53.188;8.696;2023-03-14T06:04:36;9.95;;;2.10;;
16845;SDS011;8539;53.188;8.696;2023-03-14T06:07:02;9.00;;;2.63;;
16845;SDS011;8539;53.188;8.696;2023-03-14T06:09:28;19.50;;;3.25;;
16845;SDS011;8539;53.188;8.696;2023-03-14T06:11:55;5.22;;;1.90;;
16845;SDS011;8539;53.188;8.696;2023-03-14T06:14:21;3.97;;;2.03;;
16845;SDS011;8539;53.188;8.696;2023-03-14T06:16:47;5.63;;;1.95;;
16845;SDS011;8539;53.188;8.696;2023-03-14T06:19:14;10.18;;;2.83;;
16845;SDS011;8539;53.188;8.696;2023-03-14T06:21:40;5.50;;;2.30;;
16845;SDS011;8539;53.188;8.696;2023-03-14T06:24:06;2.25;;;2.00;;
16845;SDS011;8539;53.188;8.696;2023-03-14T06:26:32;3.20;;;2.25;;
16845;SDS011;8539;53.188;8.696;2023-03-14T06:28:59;6.35;;;2.00;;
16845;SDS011;8539;53.188;8.696;2023-03-14T06:31:29;6.85;;;2.15;;
16845;SDS011;8539;53.188;8.696;2023-03-14T06:33:56;8.48;;;2.00;;
16845;SDS011;8539;53.188;8.696;2023-03-14T06:36:22;4.15;;;2.17;;
16845;SDS011;8539;53.188;8.696;2023-03-14T06:38:49;7.13;;;3.00;;
16845;SDS011;8539;53.188;8.696;2023-03-14T06:41:15;14.40;;;2.17;;
16845;SDS011;8539;53.188;8.696;2023-03-14T06:43:41;5.28;;;2.30;;
16845;SDS011;8539;53.188;8.696;2023-03-14T06:46:07;11.40;;;2.85;;
16845;SDS011;8539;53.188;8.696;2023-03-14T06:48:34;5.18;;;1.90;;
16845;SDS011;8539;53.188;8.696;2023-03-14T06:51:00;3.90;;;1.58;;
16845;SDS011;8539;53.188;8.696;2023-03-14T06:53:26;6.65;;;2.33;;
16845;SDS011;8539;53.188;8.696;2023-03-14T06:55:52;9.05;;;2.65;;
16845;SDS011;8539;53.188;8.696;2023-03-14T06:58:19;4.25;;;1.83;;
16845;SDS011;8539;53.188;8.696;2023-03-14T07:00:45;6.07;;;2.10;;
16845;SDS011;8539;53.188;8.696;2023-03-14T07:03:12;4.85;;;1.83;;
16845;SDS011;8539;53.188;8.696;2023-03-14T07:05:39;9.40;;;2.10;;
16845;SDS011;8539;53.188;8.696;2023-03-14T07:08:08;4.55;;;2.03;;
16845;SDS011;8539;53.188;8.696;2023-03-14T07:10:34;11.40;;;2.75;;
16845;SDS011;8539;53.188;8.696;2023-03-14T07:13:01;8.68;;;2.30;;
16845;SDS011;8539;53.188;8.696;2023-03-14T07:15:27;6.60;;;2.03;;
16845;SDS011;8539;53.188;8.696;2023-03-14T07:17:53;5.25;;;2.40;;
16845;SDS011;8539;53.188;8.696;2023-03-14T07:20:19;7.03;;;3.58;;
16845;SDS011;8539;53.188;8.696;2023-03-14T07:22:49;11.07;;;2.95;;
16845;SDS011;8539;53.188;8.696;2023-03-14T07:25:15;13.45;;;2.38;;
16845;SDS011;8539;53.188;8.696;2023-03-14T07:27:43;7.25;;;2.50;;
16845;SDS011;8539;53.188;8.696;2023-03-14T07:30:10;10.30;;;2.38;;
16845;SDS011;8539;53.188;8.696;2023-03-14T07:32:37;7.93;;;2.35;;
16845;SDS011;8539;53.188;8.696;2023-03-14T07:35:06;4.82;;;2.13;;
16845;SDS011;8539;53.188;8.696;2023-03-14T07:37:33;9.30;;;3.65;;
16845;SDS011;8539;53.188;8.696;2023-03-14T07:39:59;6.82;;;2.25;;
16845;SDS011;8539;53.188;8.696;2023-03-14T07:42:26;7.13;;;1.98;;
16845;SDS011;8539;53.188;8.696;2023-03-14T07:44:52;7.00;;;2.35;;
16845;SDS011;8539;53.188;8.696;2023-03-14T07:47:18;8.68;;;2.78;;
16845;SDS011;8539;53.188;8.696;2023-03-14T07:49:45;7.28;;;2.08;;
16845;SDS011;8539;53.188;8.696;2023-03-14T07:52:11;7.60;;;2.53;;
16845;SDS011;8539;53.188;8.696;2023-03-14T07:54:38;6.82;;;2.85;;
16845;SDS011;8539;53.188;8.696;2023-03-14T07:57:04;8.52;;;2.83;;
16845;SDS011;8539;53.188;8.696;2023-03-14T07:59:31;10.05;;;3.85;;
16845;SDS011;8539;53.188;8.696;2023-03-14T08:01:57;10.63;;;2.60;;
16845;SDS011;8539;53.188;8.696;2023-03-14T08:04:24;9.60;;;3.40;;
16845;SDS011;8539;53.188;8.696;2023-03-14T08:06:50;10.93;;;2.30;;
16845;SDS011;8539;53.188;8.696;2023-03-14T08:09:16;7.75;;;2.85;;
16845;SDS011;8539;53.188;8.696;2023-03-14T08:11:42;7.93;;;2.60;;
16845;SDS011;8539;53.188;8.696;2023-03-14T08:14:08;9.88;;;3.88;;
16845;SDS011;8539;53.188;8.696;2023-03-14T08:16:36;9.02;;;2.97;;
16845;SDS011;8539;53.188;8.696;2023-03-14T08:19:02;7.15;;;2.88;;
16845;SDS011;8539;53.188;8.696;2023-03-14T08:21:28;11.88;;;2.65;;
16845;SDS011;8539;53.188;8.696;2023-03-14T08:23:55;9.68;;;3.50;;
16845;SDS011;8539;53.188;8.696;2023-03-14T08:26:21;11.10;;;3.17;;
16845;SDS011;8539;53.188;8.696;2023-03-14T08:28:47;17.10;;;3.97;;
16845;SDS011;8539;53.188;8.696;2023-03-14T08:31:13;10.20;;;3.13;;
16845;SDS011;8539;53.188;8.696;2023-03-14T08:33:39;8.32;;;2.97;;
16845;SDS011;8539;53.188;8.696;2023-03-14T08:36:06;6.95;;;2.58;;
16845;SDS011;8539;53.188;8.696;2023-03-14T08:38:32;7.38;;;2.70;;
16845;SDS011;8539;53.188;8.696;2023-03-14T08:40:59;6.90;;;2.30;;
16845;SDS011;8539;53.188;8.696;2023-03-14T08:43:26;6.05;;;2.30;;
16845;SDS011;8539;53.188;8.696;2023-03-14T08:45:56;3.28;;;2.10;;
16845;SDS011;8539;53.188;8.696;2023-03-14T08:48:24;6.50;;;1.90;;
16845;SDS011;8539;53.188;8.696;2023-03-14T08:50:50;10.60;;;2.67;;
16845;SDS011;8539;53.188;8.696;2023-03-14T08:53:16;7.93;;;2.28;;
16845;SDS011;8539;53.188;8.696;2023-03-14T08:55:43;8.27;;;2.38;;
16845;SDS011;8539;53.188;8.696;2023-03-14T08:58:09;3.28;;;1.08;;
16845;SDS011;8539;53.188;8.696;2023-03-14T09:00:35;1.92;;;1.17;;
16845;SDS011;8539;53.188;8.696;2023-03-14T09:03:02;5.40;;;0.90;;
16845;SDS011;8539;53.188;8.696;2023-03-14T09:05:28;4.95;;;0.95;;
16845;SDS011;8539;53.188;8.696;2023-03-14T09:07:54;4.30;;;1.00;;
16845;SDS011;8539;53.188;8.696;2023-03-14T09:10:20;4.25;;;1.00;;
16845;SDS011;8539;53.188;8.696;2023-03-14T09:12:46;1.27;;;0.80;;
16845;SDS011;8539;53.188;8.696;2023-03-14T09:15:12;1.70;;;0.63;;
16845;SDS011;8539;53.188;8.696;2023-03-14T09:17:39;5.25;;;1.35;;
16845;SDS011;8539;53.188;8.696;2023-03-14T09:20:08;4.97;;;1.00;;
16845;SDS011;8539;53.188;8.696;2023-03-14T09:22:34;7.65;;;1.27;;
16845;SDS011;8539;53.188;8.696;2023-03-14T09:25:02;5.03;;;1.38;;
16845;SDS011;8539;53.188;8.696;2023-03-14T09:27:29;7.53;;;1.20;;
16845;SDS011;8539;53.188;8.696;2023-03-14T09:29:55;3.78;;;0.90;;
16845;SDS011;8539;53.188;8.696;2023-03-14T09:32:21;2.92;;;1.08;;
16845;SDS011;8539;53.188;8.696;2023-03-14T09:34:47;9.32;;;1.15;;
16845;SDS011;8539;53.188;8.696;2023-03-14T09:37:13;2.38;;;0.55;;
16845;SDS011;8539;53.188;8.696;2023-03-14T09:39:41;3.72;;;1.00;;
16845;SDS011;8539;53.188;8.696;2023-03-14T09:42:08;1.17;;;0.63;;
16845;SDS011;8539;53.188;8.696;2023-03-14T09:44:42;5.20;;;0.75;;
16845;SDS011;8539;53.188;8.696;2023-03-14T09:47:17;1.23;;;0.70;;
16845;SDS011;8539;53.188;8.696;2023-03-14T09:49:45;1.85;;;0.40;;
16845;SDS011;8539;53.188;8.696;2023-03-14T09:52:17;1.48;;;0.55;;
16845;SDS011;8539;53.188;8.696;2023-03-14T09:55:01;1.08;;;0.65;;
16845;SDS011;8539;53.188;8.696;2023-03-14T09:57:30;0.40;;;0.40;;
16845;SDS011;8539;53.188;8.696;2023-03-14T10:00:06;0.57;;;0.40;;
16845;SDS011;8539;53.188;8.696;2023-03-14T10:02:40;1.13;;;0.90;;
16845;SDS011;8539;53.188;8.696;2023-03-14T10:05:13;0.52;;;0.32;;
16845;SDS011;8539;53.188;8.696;2023-03-14T10:07:41;1.77;;;0.70;;
16845;SDS011;8539;53.188;8.696;2023-03-14T10:10:18;0.40;;;0.35;;
16845;SDS011;8539;53.188;8.696;2023-03-14T10:12:46;1.00;;;0.70;;
16845;SDS011;8539;53.188;8.696;2023-03-14T10:15:24;1.83;;;0.70;;
16845;SDS011;8539;53.188;8.696;2023-03-14T10:17:52;0.88;;;0.60;;
16845;SDS011;8539;53.188;8.696;2023-03-14T10:20:32;0.68;;;0.68;;
16845;SDS011;8539;53.188;8.696;2023-03-14T10:23:04;3.95;;;0.50;;
16845;SDS011;8539;53.188;8.696;2023-03-14T10:25:37;2.30;;;0.68;;
16845;SDS011;8539;53.188;8.696;2023-03-14T10:28:11;2.92;;;0.90;;
16845;SDS011;8539;53.188;8.696;2023-03-14T10:31:14;5.30;;;0.95;;
16845;SDS011;8539;53.188;8.696;2023-03-14T10:33:41;2.38;;;0.77;;
16845;SDS011;8539;53.188;8.696;2023-03-14T10:38:45;5.93;;;1.30;;
16845;SDS011;8539;53.188;8.696;2023-03-14T10:43:53;2.80;;;0.70;;
16845;SDS011;8539;53.188;8.696;2023-03-14T10:46:21;4.10;;;0.90;;
16845;SDS011;8539;53.188;8.696;2023-03-14T10:48:50;1.42;;;0.88;;
16845;SDS011;8539;53.188;8.696;2023-03-14T10:53:55;4.32;;;1.40;;
16845;SDS011;8539;53.188;8.696;2023-03-14T10:56:26;2.83;;;0.90;;
16845;SDS011;8539;53.188;8.696;2023-03-14T10:58:54;4.30;;;1.17;;
16845;SDS011;8539;53.188;8.696;2023-03-14T11:01:35;8.18;;;1.70;;
16845;SDS011;8539;53.188;8.696;2023-03-14T11:20:52;5.95;;;1.25;;
16845;SDS011;8539;53.188;8.696;2023-03-14T11:23:33;6.50;;;1.30;;
16845;SDS011;8539;53.188;8.696;2023-03-14T11:31:49;3.58;;;1.30;;
16845;SDS011;8539;53.188;8.696;2023-03-14T11:34:27;11.80;;;1.75;;
16845;SDS011;8539;53.188;8.696;2023-03-14T11:36:59;10.68;;;2.90;;
16845;SDS011;8539;53.188;8.696;2023-03-14T11:40:14;14.23;;;3.20;;
16845;SDS011;8539;53.188;8.696;2023-03-14T11:42:26;7.80;;;1.90;;
16845;SDS011;8539;53.188;8.696;2023-03-14T11:44:54;13.00;;;2.50;;
16845;SDS011;8539;53.188;8.696;2023-03-14T11:47:26;12.82;;;2.45;;
16845;SDS011;8539;53.188;8.696;2023-03-14T11:50:46;8.30;;;1.83;;
16845;SDS011;8539;53.188;8.696;2023-03-14T11:55:34;3.55;;;1.80;;
16845;SDS011;8539;53.188;8.696;2023-03-14T11:58:16;10.82;;;2.55;;
16845;SDS011;8539;53.188;8.696;2023-03-14T12:01:03;11.02;;;2.67;;
16845;SDS011;8539;53.188;8.696;2023-03-14T12:09:14;12.13;;;2.35;;
16845;SDS011;8539;53.188;8.696;2023-03-14T12:11:52;17.98;;;5.18;;
16845;SDS011;8539;53.188;8.696;2023-03-14T12:14:25;15.93;;;4.38;;
16845;SDS011;8539;53.188;8.696;2023-03-14T12:16:55;15.90;;;3.15;;
16845;SDS011;8539;53.188;8.696;2023-03-14T12:19:29;10.57;;;2.75;;
16845;SDS011;8539;53.188;8.696;2023-03-14T12:21:59;17.52;;;3.17;;
16845;SDS011;8539;53.188;8.696;2023-03-14T12:24:35;12.80;;;2.78;;
16845;SDS011;8539;53.188;8.696;2023-03-14T12:27:04;10.73;;;2.25;;
16845;SDS011;8539;53.188;8.696;2023-03-14T12:29:32;11.43;;;2.65;;
16845;SDS011;8539;53.188;8.696;2023-03-14T12:34:54;10.05;;;2.05;;
16845;SDS011;8539;53.188;8.696;2023-03-14T12:37:29;17.13;;;3.08;;
16845;SDS011;8539;53.188;8.696;2023-03-14T12:40:10;15.35;;;6.15;;
16845;SDS011;8539;53.188;8.696;2023-03-14T12:43:02;16.60;;;2.65;;
16845;SDS011;8539;53.188;8.696;2023-03-14T12:45:34;15.35;;;3.72;;
16845;SDS011;8539;53.188;8.696;2023-03-14T12:48:03;11.68;;;3.72;;
16845;SDS011;8539;53.188;8.696;2023-03-14T13:01:36;12.63;;;2.10;;
16845;SDS011;8539;53.188;8.696;2023-03-14T13:04:09;12.80;;;3.85;;
16845;SDS011;8539;53.188;8.696;2023-03-14T13:12:13;10.30;;;2.75;;
16845;SDS011;8539;53.188;8.696;2023-03-14T13:14:45;9.55;;;1.95;;
16845;SDS011;8539;53.188;8.696;2023-03-14T13:17:15;6.50;;;3.03;;
16845;SDS011;8539;53.188;8.696;2023-03-14T13:20:32;6.40;;;2.45;;
16845;SDS011;8539;53.188;8.696;2023-03-14T13:22:59;7.78;;;1.60;;
16845;SDS011;8539;53.188;8.696;2023-03-14T13:25:29;14.07;;;1.80;;
16845;SDS011;8539;53.188;8.696;2023-03-14T13:27:57;11.00;;;1.60;;
16845;SDS011;8539;53.188;8.696;2023-03-14T13:30:28;11.02;;;2.22;;
16845;SDS011;8539;53.188;8.696;2023-03-14T13:33:03;9.98;;;1.67;;
16845;SDS011;8539;53.188;8.696;2023-03-14T13:35:38;5.70;;;1.60;;
16845;SDS011;8539;53.188;8.696;2023-03-14T13:38:13;11.15;;;2.10;;
16845;SDS011;8539;53.188;8.696;2023-03-14T13:40:51;17.05;;;2.65;;
16845;SDS011;8539;53.188;8.696;2023-03-14T13:43:32;12.18;;;2.45;;
16845;SDS011;8539;53.188;8.696;2023-03-14T13:48:34;10.05;;;2.00;;
16845;SDS011;8539;53.188;8.696;2023-03-14T13:51:06;14.80;;;3.65;;
16845;SDS011;8539;53.188;8.696;2023-03-14T13:53:46;9.52;;;1.50;;
16845;SDS011;8539;53.188;8.696;2023-03-14T13:56:12;6.97;;;2.35;;
16845;SDS011;8539;53.188;8.696;2023-03-14T13:58:39;6.13;;;1.50;;
16845;SDS011;8539;53.188;8.696;2023-03-14T14:03:37;7.13;;;1.92;;
16845;SDS011;8539;53.188;8.696;2023-03-14T14:06:06;5.60;;;2.38;;
16845;SDS011;8539;53.188;8.696;2023-03-14T14:09:02;12.10;;;2.47;;
16845;SDS011;8539;53.188;8.696;2023-03-14T14:17:13;15.15;;;2.53;;
16845;SDS011;8539;53.188;8.696;2023-03-14T14:19:43;6.88;;;2.30;;
16845;SDS011;8539;53.188;8.696;2023-03-14T14:22:11;11.70;;;2.15;;
16845;SDS011;8539;53.188;8.696;2023-03-14T14:24:38;9.30;;;2.15;;
16845;SDS011;8539;53.188;8.696;2023-03-14T14:29:40;7.55;;;2.05;;
16845;SDS011;8539;53.188;8.696;2023-03-14T14:37:33;6.57;;;1.80;;
16845;SDS011;8539;53.188;8.696;2023-03-14T14:40:10;9.82;;;3.00;;
16845;SDS011;8539;53.188;8.696;2023-03-14T14:42:50;10.82;;;1.50;;
16845;SDS011;8539;53.188;8.696;2023-03-14T14:45:19;12.15;;;2.53;;
16845;SDS011;8539;53.188;8.696;2023-03-14T14:52:58;11.93;;;1.67;;
16845;SDS011;8539;53.188;8.696;2023-03-14T14:55:31;6.00;;;1.55;;
16845;SDS011;8539;53.188;8.696;2023-03-14T14:58:09;5.82;;;1.55;;
16845;SDS011;8539;53.188;8.696;2023-03-14T15:00:49;4.50;;;1.10;;
16845;SDS011;8539;53.188;8.696;2023-03-14T15:05:44;5.15;;;1.30;;
16845;SDS011;8539;53.188;8.696;2023-03-14T15:08:11;10.77;;;2.92;;
16845;SDS011;8539;53.188;8.696;2023-03-14T15:10:38;7.55;;;1.85;;
16845;SDS011;8539;53.188;8.696;2023-03-14T15:13:04;7.32;;;1.40;;
16845;SDS011;8539;53.188;8.696;2023-03-14T15:15:30;18.55;;;1.98;;
16845;SDS011;8539;53.188;8.696;2023-03-14T15:17:56;4.30;;;1.45;;
16845;SDS011;8539;53.188;8.696;2023-03-14T15:20:23;11.35;;;2.58;;
16845;SDS011;8539;53.188;8.696;2023-03-14T15:22:49;13.00;;;2.13;;
16845;SDS011;8539;53.188;8.696;2023-03-14T15:25:20;5.82;;;2.80;;
16845;SDS011;8539;53.188;8.696;2023-03-14T15:27:46;7.82;;;2.15;;
16845;SDS011;8539;53.188;8.696;2023-03-14T15:30:13;9.52;;;2.10;;
16845;SDS011;8539;53.188;8.696;2023-03-14T15:32:39;4.57;;;1.70;;
16845;SDS011;8539;53.188;8.696;2023-03-14T15:35:06;8.23;;;1.67;;
16845;SDS011;8539;53.188;8.696;2023-03-14T15:37:33;11.73;;;2.08;;
16845;SDS011;8539;53.188;8.696;2023-03-14T15:40:00;12.70;;;2.50;;
16845;SDS011;8539;53.188;8.696;2023-03-14T15:42:29;13.20;;;4.13;;
16845;SDS011;8539;53.188;8.696;2023-03-14T15:44:56;8.60;;;1.55;;
16845;SDS011;8539;53.188;8.696;2023-03-14T15:47:22;6.18;;;1.90;;
16845;SDS011;8539;53.188;8.696;2023-03-14T15:49:47;9.73;;;1.90;;
16845;SDS011;8539;53.188;8.696;2023-03-14T15:52:14;6.97;;;1.55;;
16845;SDS011;8539;53.188;8.696;2023-03-14T15:54:40;6.05;;;1.90;;
16845;SDS011;8539;53.188;8.696;2023-03-14T15:57:09;11.88;;;2.08;;
16845;SDS011;8539;53.188;8.696;2023-03-14T15:59:36;5.60;;;1.73;;
16845;SDS011;8539;53.188;8.696;2023-03-14T16:02:02;10.48;;;3.05;;
16845;SDS011;8539;53.188;8.696;2023-03-14T16:04:28;10.20;;;1.73;;
16845;SDS011;8539;53.188;8.696;2023-03-14T16:06:54;7.10;;;1.65;;
16845;SDS011;8539;53.188;8.696;2023-03-14T16:09:20;8.95;;;2.20;;
16845;SDS011;8539;53.188;8.696;2023-03-14T16:11:47;4.47;;;1.20;;
16845;SDS011;8539;53.188;8.696;2023-03-14T16:14:13;16.25;;;2.40;;
16845;SDS011;8539;53.188;8.696;2023-03-14T16:16:39;12.82;;;2.75;;
16845;SDS011;8539;53.188;8.696;2023-03-14T16:19:06;3.55;;;1.30;;
16845;SDS011;8539;53.188;8.696;2023-03-14T16:21:32;14.88;;;2.22;;
16845;SDS011;8539;53.188;8.696;2023-03-14T16:23:58;13.02;;;1.70;;
16845;SDS011;8539;53.188;8.696;2023-03-14T16:26:25;7.00;;;1.58;;
16845;SDS011;8539;53.188;8.696;2023-03-14T16:28:51;4.25;;;1.20;;
16845;SDS011;8539;53.188;8.696;2023-03-14T16:31:18;8.88;;;1.67;;
16845;SDS011;8539;53.188;8.696;2023-03-14T16:33:46;6.75;;;2.22;;
16845;SDS011;8539;53.188;8.696;2023-03-14T16:36:13;6.53;;;1.60;;
16845;SDS011;8539;53.188;8.696;2023-03-14T16:38:40;6.30;;;1.73;;